sensor_id;sensor_type;location;lat;lon;timestamp;P1;durP1;ratioP1;P2;durP2;ratioP2
16612;SDS011;8419;52.358;9.752;2023-11-21T00:00:28;10.48;;;4.62;;
16612;SDS011;8419;52.358;9.752;2023-11-21T00:03:14;8.25;;;4.65;;
16612;SDS011;8419;52.358;9.752;2023-11-21T00:06:00;10.55;;;4.75;;
16612;SDS011;8419;52.358;9.752;2023-11-21T00:08:46;11.75;;;4.80;;
16612;SDS011;8419;52.358;9.752;2023-11-21T00:11:31;11.35;;;5.22;;
16612;SDS011;8419;52.358;9.752;2023-11-21T00:14:18;10.93;;;4.90;;
16612;SDS011;8419;52.358;9.752;2023-11-21T00:17:04;13.65;;;5.30;;
16612;SDS011;8419;52.358;9.752;2023-11-21T00:19:50;15.32;;;5.37;;
16612;SDS011;8419;52.358;9.752;2023-11-21T00:22:36;8.85;;;4.85;;
16612;SDS011;8419;52.358;9.752;2023-11-21T00:25:22;9.63;;;5.28;;
16612;SDS011;8419;52.358;9.752;2023-11-21T00:28:09;15.95;;;5.43;;
16612;SDS011;8419;52.358;9.752;2023-11-21T00:30:54;17.58;;;5.57;;
16612;SDS011;8419;52.358;9.752;2023-11-21T00:33:40;12.43;;;5.10;;
16612;SDS011;8419;52.358;9.752;2023-11-21T00:36:27;16.17;;;5.90;;
16612;SDS011;8419;52.358;9.752;2023-11-21T00:39:16;10.98;;;5.62;;
16612;SDS011;8419;52.358;9.752;2023-11-21T00:42:01;9.45;;;4.93;;
16612;SDS011;8419;52.358;9.752;2023-11-21T00:44:49;11.20;;;4.62;;
16612;SDS011;8419;52.358;9.752;2023-11-21T00:47:34;10.85;;;5.28;;
16612;SDS011;8419;52.358;9.752;2023-11-21T00:50:22;11.40;;;5.57;;
16612;SDS011;8419;52.358;9.752;2023-11-21T00:53:08;17.75;;;6.53;;
16612;SDS011;8419;52.358;9.752;2023-11-21T00:55:55;13.52;;;5.95;;
16612;SDS011;8419;52.358;9.752;2023-11-21T00:58:41;13.05;;;5.78;;
16612;SDS011;8419;52.358;9.752;2023-11-21T01:01:28;13.82;;;6.18;;
16612;SDS011;8419;52.358;9.752;2023-11-21T01:04:15;13.38;;;6.32;;
16612;SDS011;8419;52.358;9.752;2023-11-21T01:07:00;14.35;;;6.22;;
16612;SDS011;8419;52.358;9.752;2023-11-21T01:09:46;17.77;;;5.80;;
16612;SDS011;8419;52.358;9.752;2023-11-21T01:12:32;11.98;;;5.53;;
16612;SDS011;8419;52.358;9.752;2023-11-21T01:15:21;16.05;;;6.00;;
16612;SDS011;8419;52.358;9.752;2023-11-21T01:18:07;13.65;;;6.12;;
16612;SDS011;8419;52.358;9.752;2023-11-21T01:20:53;15.68;;;7.22;;
16612;SDS011;8419;52.358;9.752;2023-11-21T01:23:38;16.27;;;7.03;;
16612;SDS011;8419;52.358;9.752;2023-11-21T01:26:24;17.55;;;6.93;;
16612;SDS011;8419;52.358;9.752;2023-11-21T01:29:10;15.48;;;6.97;;
16612;SDS011;8419;52.358;9.752;2023-11-21T01:31:55;15.68;;;5.97;;
16612;SDS011;8419;52.358;9.752;2023-11-21T01:34:42;16.35;;;7.15;;
16612;SDS011;8419;52.358;9.752;2023-11-21T01:37:28;17.33;;;6.90;;
16612;SDS011;8419;52.358;9.752;2023-11-21T01:40:15;17.98;;;6.28;;
16612;SDS011;8419;52.358;9.752;2023-11-21T01:43:00;10.27;;;7.07;;
16612;SDS011;8419;52.358;9.752;2023-11-21T01:45:47;16.48;;;7.20;;
16612;SDS011;8419;52.358;9.752;2023-11-21T01:48:33;16.80;;;7.80;;
16612;SDS011;8419;52.358;9.752;2023-11-21T01:51:19;14.95;;;6.80;;
16612;SDS011;8419;52.358;9.752;2023-11-21T01:54:05;15.80;;;7.30;;
16612;SDS011;8419;52.358;9.752;2023-11-21T01:56:51;20.50;;;7.07;;
16612;SDS011;8419;52.358;9.752;2023-11-21T01:59:37;22.00;;;7.45;;
16612;SDS011;8419;52.358;9.752;2023-11-21T02:02:26;14.18;;;6.95;;
16612;SDS011;8419;52.358;9.752;2023-11-21T02:05:12;14.52;;;6.60;;
16612;SDS011;8419;52.358;9.752;2023-11-21T02:07:59;18.87;;;7.50;;
16612;SDS011;8419;52.358;9.752;2023-11-21T02:10:45;19.55;;;7.82;;
16612;SDS011;8419;52.358;9.752;2023-11-21T02:13:32;17.55;;;7.03;;
16612;SDS011;8419;52.358;9.752;2023-11-21T02:16:18;15.82;;;7.65;;
16612;SDS011;8419;52.358;9.752;2023-11-21T02:19:05;15.18;;;8.25;;
16612;SDS011;8419;52.358;9.752;2023-11-21T02:21:56;16.27;;;7.95;;
16612;SDS011;8419;52.358;9.752;2023-11-21T02:24:45;15.90;;;7.70;;
16612;SDS011;8419;52.358;9.752;2023-11-21T02:27:31;19.23;;;8.32;;
16612;SDS011;8419;52.358;9.752;2023-11-21T02:30:17;15.02;;;8.05;;
16612;SDS011;8419;52.358;9.752;2023-11-21T02:33:03;19.15;;;8.38;;
16612;SDS011;8419;52.358;9.752;2023-11-21T02:35:50;21.30;;;8.90;;
16612;SDS011;8419;52.358;9.752;2023-11-21T02:38:38;15.48;;;9.65;;
16612;SDS011;8419;52.358;9.752;2023-11-21T02:41:24;18.65;;;8.98;;
16612;SDS011;8419;52.358;9.752;2023-11-21T02:44:09;17.42;;;8.48;;
16612;SDS011;8419;52.358;9.752;2023-11-21T02:46:55;21.65;;;8.48;;
16612;SDS011;8419;52.358;9.752;2023-11-21T02:49:41;14.75;;;8.25;;
16612;SDS011;8419;52.358;9.752;2023-11-21T02:52:27;17.73;;;8.48;;
16612;SDS011;8419;52.358;9.752;2023-11-21T02:55:12;20.60;;;8.95;;
16612;SDS011;8419;52.358;9.752;2023-11-21T02:57:58;20.35;;;9.00;;
16612;SDS011;8419;52.358;9.752;2023-11-21T03:00:44;16.60;;;8.68;;
16612;SDS011;8419;52.358;9.752;2023-11-21T03:03:29;21.25;;;10.25;;
16612;SDS011;8419;52.358;9.752;2023-11-21T03:06:14;20.17;;;9.77;;
16612;SDS011;8419;52.358;9.752;2023-11-21T03:09:00;20.88;;;9.07;;
16612;SDS011;8419;52.358;9.752;2023-11-21T03:11:46;18.90;;;8.27;;
16612;SDS011;8419;52.358;9.752;2023-11-21T03:14:31;20.75;;;8.98;;
16612;SDS011;8419;52.358;9.752;2023-11-21T03:17:17;19.80;;;9.32;;
16612;SDS011;8419;52.358;9.752;2023-11-21T03:20:03;19.70;;;9.40;;
16612;SDS011;8419;52.358;9.752;2023-11-21T03:22:55;20.02;;;9.57;;
16612;SDS011;8419;52.358;9.752;2023-11-21T03:25:40;20.92;;;9.85;;
16612;SDS011;8419;52.358;9.752;2023-11-21T03:28:26;25.08;;;9.35;;
16612;SDS011;8419;52.358;9.752;2023-11-21T03:31:12;24.40;;;11.65;;
16612;SDS011;8419;52.358;9.752;2023-11-21T03:33:58;24.55;;;10.43;;
16612;SDS011;8419;52.358;9.752;2023-11-21T03:36:43;24.65;;;10.43;;
16612;SDS011;8419;52.358;9.752;2023-11-21T03:39:30;23.30;;;9.95;;
16612;SDS011;8419;52.358;9.752;2023-11-21T03:42:16;18.40;;;9.55;;
16612;SDS011;8419;52.358;9.752;2023-11-21T03:45:02;21.48;;;9.82;;
16612;SDS011;8419;52.358;9.752;2023-11-21T03:47:49;22.45;;;10.25;;
16612;SDS011;8419;52.358;9.752;2023-11-21T03:50:34;22.58;;;9.90;;
16612;SDS011;8419;52.358;9.752;2023-11-21T03:53:20;22.80;;;11.05;;
16612;SDS011;8419;52.358;9.752;2023-11-21T03:56:06;25.40;;;10.00;;
16612;SDS011;8419;52.358;9.752;2023-11-21T03:58:53;24.55;;;10.27;;
16612;SDS011;8419;52.358;9.752;2023-11-21T04:01:38;24.58;;;10.35;;
16612;SDS011;8419;52.358;9.752;2023-11-21T04:04:24;20.02;;;9.20;;
16612;SDS011;8419;52.358;9.752;2023-11-21T04:07:09;24.73;;;11.98;;
16612;SDS011;8419;52.358;9.752;2023-11-21T04:09:55;23.27;;;10.32;;
16612;SDS011;8419;52.358;9.752;2023-11-21T04:12:40;24.90;;;10.30;;
16612;SDS011;8419;52.358;9.752;2023-11-21T04:15:26;23.12;;;10.52;;
16612;SDS011;8419;52.358;9.752;2023-11-21T04:18:12;23.70;;;11.43;;
16612;SDS011;8419;52.358;9.752;2023-11-21T04:20:57;25.37;;;11.15;;
16612;SDS011;8419;52.358;9.752;2023-11-21T04:23:43;26.58;;;11.70;;
16612;SDS011;8419;52.358;9.752;2023-11-21T04:26:29;26.83;;;11.75;;
16612;SDS011;8419;52.358;9.752;2023-11-21T04:29:15;26.45;;;11.48;;
16612;SDS011;8419;52.358;9.752;2023-11-21T04:32:01;29.15;;;12.05;;
16612;SDS011;8419;52.358;9.752;2023-11-21T04:34:47;21.92;;;11.52;;
16612;SDS011;8419;52.358;9.752;2023-11-21T04:37:32;28.70;;;12.37;;
16612;SDS011;8419;52.358;9.752;2023-11-21T04:40:18;28.38;;;11.90;;
16612;SDS011;8419;52.358;9.752;2023-11-21T04:43:04;32.67;;;11.68;;
16612;SDS011;8419;52.358;9.752;2023-11-21T04:45:50;26.77;;;12.43;;
16612;SDS011;8419;52.358;9.752;2023-11-21T04:48:36;25.50;;;11.05;;
16612;SDS011;8419;52.358;9.752;2023-11-21T04:51:21;27.08;;;12.32;;
16612;SDS011;8419;52.358;9.752;2023-11-21T04:54:08;19.33;;;10.43;;
16612;SDS011;8419;52.358;9.752;2023-11-21T04:56:54;24.12;;;12.68;;
16612;SDS011;8419;52.358;9.752;2023-11-21T04:59:40;25.90;;;12.23;;
16612;SDS011;8419;52.358;9.752;2023-11-21T05:02:26;21.92;;;11.15;;
16612;SDS011;8419;52.358;9.752;2023-11-21T05:05:12;31.73;;;11.55;;
16612;SDS011;8419;52.358;9.752;2023-11-21T05:07:58;20.70;;;10.52;;
16612;SDS011;8419;52.358;9.752;2023-11-21T05:10:44;26.23;;;11.43;;
16612;SDS011;8419;52.358;9.752;2023-11-21T05:13:31;18.87;;;9.93;;
16612;SDS011;8419;52.358;9.752;2023-11-21T05:16:20;22.17;;;10.75;;
16612;SDS011;8419;52.358;9.752;2023-11-21T05:19:06;21.17;;;10.55;;
16612;SDS011;8419;52.358;9.752;2023-11-21T05:21:53;20.08;;;9.48;;
16612;SDS011;8419;52.358;9.752;2023-11-21T05:24:39;15.13;;;7.87;;
16612;SDS011;8419;52.358;9.752;2023-11-21T05:27:24;18.50;;;9.45;;
16612;SDS011;8419;52.358;9.752;2023-11-21T05:30:11;16.87;;;8.88;;
16612;SDS011;8419;52.358;9.752;2023-11-21T05:32:58;17.42;;;8.85;;
16612;SDS011;8419;52.358;9.752;2023-11-21T05:35:43;18.50;;;9.07;;
16612;SDS011;8419;52.358;9.752;2023-11-21T05:38:29;19.00;;;8.65;;
16612;SDS011;8419;52.358;9.752;2023-11-21T05:41:18;17.58;;;7.75;;
16612;SDS011;8419;52.358;9.752;2023-11-21T05:44:04;15.07;;;8.93;;
16612;SDS011;8419;52.358;9.752;2023-11-21T05:46:52;17.17;;;8.02;;
16612;SDS011;8419;52.358;9.752;2023-11-21T05:49:38;8.25;;;4.62;;
16612;SDS011;8419;52.358;9.752;2023-11-21T05:52:23;10.05;;;5.45;;
16612;SDS011;8419;52.358;9.752;2023-11-21T05:55:09;13.18;;;7.45;;
16612;SDS011;8419;52.358;9.752;2023-11-21T05:57:55;12.25;;;5.57;;
16612;SDS011;8419;52.358;9.752;2023-11-21T06:00:41;12.35;;;6.57;;
16612;SDS011;8419;52.358;9.752;2023-11-21T06:03:26;14.87;;;6.53;;
16612;SDS011;8419;52.358;9.752;2023-11-21T06:06:12;12.30;;;5.82;;
16612;SDS011;8419;52.358;9.752;2023-11-21T06:09:00;12.70;;;7.00;;
16612;SDS011;8419;52.358;9.752;2023-11-21T06:11:45;10.98;;;5.55;;
16612;SDS011;8419;52.358;9.752;2023-11-21T06:14:31;10.57;;;5.28;;
16612;SDS011;8419;52.358;9.752;2023-11-21T06:17:20;11.48;;;6.22;;
16612;SDS011;8419;52.358;9.752;2023-11-21T06:20:09;11.15;;;5.70;;
16612;SDS011;8419;52.358;9.752;2023-11-21T06:22:58;11.48;;;6.37;;
16612;SDS011;8419;52.358;9.752;2023-11-21T06:25:48;9.30;;;5.82;;
16612;SDS011;8419;52.358;9.752;2023-11-21T06:28:33;12.75;;;6.20;;
16612;SDS011;8419;52.358;9.752;2023-11-21T06:31:20;9.90;;;5.80;;
16612;SDS011;8419;52.358;9.752;2023-11-21T06:34:06;14.87;;;6.82;;
16612;SDS011;8419;52.358;9.752;2023-11-21T06:36:53;17.45;;;7.35;;
16612;SDS011;8419;52.358;9.752;2023-11-21T06:39:39;10.07;;;5.68;;
16612;SDS011;8419;52.358;9.752;2023-11-21T06:42:26;13.43;;;7.15;;
16612;SDS011;8419;52.358;9.752;2023-11-21T06:45:14;13.25;;;6.72;;
16612;SDS011;8419;52.358;9.752;2023-11-21T06:48:00;11.18;;;6.32;;
16612;SDS011;8419;52.358;9.752;2023-11-21T06:50:46;10.65;;;6.22;;
16612;SDS011;8419;52.358;9.752;2023-11-21T06:53:32;8.38;;;5.07;;
16612;SDS011;8419;52.358;9.752;2023-11-21T06:56:18;6.43;;;4.28;;
16612;SDS011;8419;52.358;9.752;2023-11-21T06:59:04;8.65;;;4.12;;
16612;SDS011;8419;52.358;9.752;2023-11-21T07:01:51;6.80;;;3.95;;
16612;SDS011;8419;52.358;9.752;2023-11-21T07:04:37;7.20;;;4.32;;
16612;SDS011;8419;52.358;9.752;2023-11-21T07:07:22;5.68;;;3.50;;
16612;SDS011;8419;52.358;9.752;2023-11-21T07:10:08;7.40;;;4.30;;
16612;SDS011;8419;52.358;9.752;2023-11-21T07:12:54;5.57;;;4.00;;
16612;SDS011;8419;52.358;9.752;2023-11-21T07:15:41;18.58;;;9.65;;
16612;SDS011;8419;52.358;9.752;2023-11-21T07:18:27;7.80;;;3.97;;
16612;SDS011;8419;52.358;9.752;2023-11-21T07:21:13;6.47;;;4.20;;
16612;SDS011;8419;52.358;9.752;2023-11-21T07:24:00;5.28;;;4.00;;
16612;SDS011;8419;52.358;9.752;2023-11-21T07:26:46;6.35;;;4.32;;
16612;SDS011;8419;52.358;9.752;2023-11-21T07:29:32;7.03;;;4.05;;
16612;SDS011;8419;52.358;9.752;2023-11-21T07:32:18;5.28;;;3.45;;
16612;SDS011;8419;52.358;9.752;2023-11-21T07:35:04;6.60;;;4.62;;
16612;SDS011;8419;52.358;9.752;2023-11-21T07:37:52;5.68;;;4.10;;
16612;SDS011;8419;52.358;9.752;2023-11-21T07:40:37;7.60;;;3.78;;
16612;SDS011;8419;52.358;9.752;2023-11-21T07:43:23;5.95;;;3.78;;
16612;SDS011;8419;52.358;9.752;2023-11-21T07:46:10;5.00;;;3.53;;
16612;SDS011;8419;52.358;9.752;2023-11-21T07:48:56;5.50;;;3.92;;
16612;SDS011;8419;52.358;9.752;2023-11-21T07:51:43;5.53;;;3.47;;
16612;SDS011;8419;52.358;9.752;2023-11-21T07:54:29;7.00;;;4.07;;
16612;SDS011;8419;52.358;9.752;2023-11-21T07:57:14;4.90;;;3.65;;
16612;SDS011;8419;52.358;9.752;2023-11-21T08:00:00;7.60;;;4.00;;
16612;SDS011;8419;52.358;9.752;2023-11-21T08:02:48;6.25;;;4.00;;
16612;SDS011;8419;52.358;9.752;2023-11-21T08:05:34;6.37;;;3.95;;
16612;SDS011;8419;52.358;9.752;2023-11-21T08:08:19;8.55;;;4.53;;
16612;SDS011;8419;52.358;9.752;2023-11-21T08:11:05;6.62;;;4.12;;
16612;SDS011;8419;52.358;9.752;2023-11-21T08:13:52;6.70;;;4.22;;
16612;SDS011;8419;52.358;9.752;2023-11-21T08:16:38;9.43;;;5.57;;
16612;SDS011;8419;52.358;9.752;2023-11-21T08:19:24;7.25;;;5.60;;
16612;SDS011;8419;52.358;9.752;2023-11-21T08:22:09;9.65;;;5.43;;
16612;SDS011;8419;52.358;9.752;2023-11-21T08:24:55;8.10;;;4.57;;
16612;SDS011;8419;52.358;9.752;2023-11-21T08:27:41;9.80;;;5.82;;
16612;SDS011;8419;52.358;9.752;2023-11-21T08:30:26;8.73;;;5.87;;
16612;SDS011;8419;52.358;9.752;2023-11-21T08:33:14;9.77;;;5.95;;
16612;SDS011;8419;52.358;9.752;2023-11-21T08:36:00;11.07;;;6.82;;
16612;SDS011;8419;52.358;9.752;2023-11-21T08:38:46;9.93;;;6.53;;
16612;SDS011;8419;52.358;9.752;2023-11-21T08:41:33;11.68;;;6.78;;
16612;SDS011;8419;52.358;9.752;2023-11-21T08:44:19;10.18;;;6.30;;
16612;SDS011;8419;52.358;9.752;2023-11-21T08:47:04;10.13;;;6.62;;
16612;SDS011;8419;52.358;9.752;2023-11-21T08:49:50;10.48;;;6.57;;
16612;SDS011;8419;52.358;9.752;2023-11-21T08:52:38;10.20;;;6.28;;
16612;SDS011;8419;52.358;9.752;2023-11-21T08:55:25;9.82;;;6.40;;
16612;SDS011;8419;52.358;9.752;2023-11-21T08:58:12;9.88;;;6.15;;
16612;SDS011;8419;52.358;9.752;2023-11-21T09:00:57;9.32;;;5.75;;
16612;SDS011;8419;52.358;9.752;2023-11-21T09:03:44;12.32;;;6.62;;
16612;SDS011;8419;52.358;9.752;2023-11-21T09:06:30;9.77;;;6.20;;
16612;SDS011;8419;52.358;9.752;2023-11-21T09:09:15;7.87;;;5.85;;
16612;SDS011;8419;52.358;9.752;2023-11-21T09:12:01;9.07;;;5.97;;
16612;SDS011;8419;52.358;9.752;2023-11-21T09:14:47;12.50;;;6.60;;
16612;SDS011;8419;52.358;9.752;2023-11-21T09:17:35;11.55;;;6.22;;
16612;SDS011;8419;52.358;9.752;2023-11-21T09:20:23;11.48;;;6.18;;
16612;SDS011;8419;52.358;9.752;2023-11-21T09:23:09;8.18;;;6.07;;
16612;SDS011;8419;52.358;9.752;2023-11-21T09:25:55;8.20;;;5.50;;
16612;SDS011;8419;52.358;9.752;2023-11-21T09:28:44;10.13;;;5.43;;
16612;SDS011;8419;52.358;9.752;2023-11-21T09:31:31;8.02;;;5.50;;
16612;SDS011;8419;52.358;9.752;2023-11-21T09:34:17;8.07;;;4.70;;
16612;SDS011;8419;52.358;9.752;2023-11-21T09:37:03;5.97;;;4.68;;
16612;SDS011;8419;52.358;9.752;2023-11-21T09:39:50;10.00;;;4.60;;
16612;SDS011;8419;52.358;9.752;2023-11-21T09:42:36;7.10;;;5.05;;
16612;SDS011;8419;52.358;9.752;2023-11-21T09:45:25;6.78;;;5.43;;
16612;SDS011;8419;52.358;9.752;2023-11-21T09:48:12;6.20;;;4.57;;
16612;SDS011;8419;52.358;9.752;2023-11-21T09:50:58;8.88;;;5.20;;
16612;SDS011;8419;52.358;9.752;2023-11-21T09:53:48;8.25;;;5.10;;
16612;SDS011;8419;52.358;9.752;2023-11-21T09:56:37;9.13;;;4.65;;
16612;SDS011;8419;52.358;9.752;2023-11-21T09:59:23;6.53;;;4.87;;
16612;SDS011;8419;52.358;9.752;2023-11-21T10:02:10;6.37;;;5.00;;
16612;SDS011;8419;52.358;9.752;2023-11-21T10:04:58;6.78;;;5.35;;
16612;SDS011;8419;52.358;9.752;2023-11-21T10:07:44;6.35;;;4.70;;
16612;SDS011;8419;52.358;9.752;2023-11-21T10:10:32;6.78;;;5.00;;
16612;SDS011;8419;52.358;9.752;2023-11-21T10:13:18;6.28;;;4.80;;
16612;SDS011;8419;52.358;9.752;2023-11-21T10:16:04;6.10;;;4.15;;
16612;SDS011;8419;52.358;9.752;2023-11-21T10:18:52;7.60;;;4.70;;
16612;SDS011;8419;52.358;9.752;2023-11-21T10:21:39;6.93;;;5.40;;
16612;SDS011;8419;52.358;9.752;2023-11-21T10:24:25;6.90;;;4.28;;
16612;SDS011;8419;52.358;9.752;2023-11-21T10:27:11;8.88;;;5.37;;
16612;SDS011;8419;52.358;9.752;2023-11-21T10:29:57;7.90;;;4.25;;
16612;SDS011;8419;52.358;9.752;2023-11-21T10:32:44;6.40;;;4.50;;
16612;SDS011;8419;52.358;9.752;2023-11-21T10:35:42;7.80;;;4.57;;
16612;SDS011;8419;52.358;9.752;2023-11-21T10:38:35;7.53;;;4.30;;
16612;SDS011;8419;52.358;9.752;2023-11-21T10:41:29;7.22;;;4.47;;
16612;SDS011;8419;52.358;9.752;2023-11-21T10:44:18;5.75;;;3.97;;
16612;SDS011;8419;52.358;9.752;2023-11-21T10:47:05;5.40;;;3.67;;
16612;SDS011;8419;52.358;9.752;2023-11-21T10:49:56;7.40;;;4.20;;
16612;SDS011;8419;52.358;9.752;2023-11-21T10:52:44;6.40;;;4.25;;
16612;SDS011;8419;52.358;9.752;2023-11-21T10:55:31;4.78;;;3.40;;
16612;SDS011;8419;52.358;9.752;2023-11-21T10:58:19;6.25;;;4.30;;
16612;SDS011;8419;52.358;9.752;2023-11-21T11:01:06;5.25;;;4.00;;
16612;SDS011;8419;52.358;9.752;2023-11-21T11:03:52;4.87;;;3.53;;
16612;SDS011;8419;52.358;9.752;2023-11-21T11:06:39;5.10;;;3.72;;
16612;SDS011;8419;52.358;9.752;2023-11-21T11:09:25;5.87;;;3.97;;
16612;SDS011;8419;52.358;9.752;2023-11-21T11:12:11;5.20;;;3.95;;
16612;SDS011;8419;52.358;9.752;2023-11-21T11:14:58;4.70;;;3.33;;
16612;SDS011;8419;52.358;9.752;2023-11-21T11:17:47;5.40;;;4.07;;
16612;SDS011;8419;52.358;9.752;2023-11-21T11:20:34;4.28;;;3.62;;
16612;SDS011;8419;52.358;9.752;2023-11-21T11:23:32;8.48;;;4.10;;
16612;SDS011;8419;52.358;9.752;2023-11-21T11:26:41;5.30;;;3.67;;
16612;SDS011;8419;52.358;9.752;2023-11-21T11:29:34;4.97;;;4.18;;
16612;SDS011;8419;52.358;9.752;2023-11-21T11:32:33;5.03;;;3.72;;
16612;SDS011;8419;52.358;9.752;2023-11-21T11:35:34;6.12;;;4.40;;
16612;SDS011;8419;52.358;9.752;2023-11-21T11:38:27;5.18;;;3.90;;
16612;SDS011;8419;52.358;9.752;2023-11-21T11:41:24;6.82;;;4.43;;
16612;SDS011;8419;52.358;9.752;2023-11-21T11:44:46;6.70;;;3.35;;
16612;SDS011;8419;52.358;9.752;2023-11-21T11:47:35;6.20;;;4.20;;
16612;SDS011;8419;52.358;9.752;2023-11-21T11:50:22;5.65;;;4.15;;
16612;SDS011;8419;52.358;9.752;2023-11-21T11:53:13;5.15;;;4.12;;
16612;SDS011;8419;52.358;9.752;2023-11-21T11:56:07;5.15;;;4.22;;
16612;SDS011;8419;52.358;9.752;2023-11-21T11:59:07;6.53;;;3.53;;
16612;SDS011;8419;52.358;9.752;2023-11-21T12:01:53;5.45;;;3.90;;
16612;SDS011;8419;52.358;9.752;2023-11-21T12:04:43;5.05;;;3.30;;
16612;SDS011;8419;52.358;9.752;2023-11-21T12:07:39;5.35;;;3.37;;
16612;SDS011;8419;52.358;9.752;2023-11-21T12:10:30;4.82;;;3.55;;
16612;SDS011;8419;52.358;9.752;2023-11-21T12:13:17;5.75;;;3.37;;
16612;SDS011;8419;52.358;9.752;2023-11-21T12:16:04;4.97;;;3.50;;
16612;SDS011;8419;52.358;9.752;2023-11-21T12:18:52;4.47;;;3.22;;
16612;SDS011;8419;52.358;9.752;2023-11-21T12:21:39;7.07;;;3.62;;
16612;SDS011;8419;52.358;9.752;2023-11-21T12:24:25;4.32;;;2.92;;
16612;SDS011;8419;52.358;9.752;2023-11-21T12:27:17;4.72;;;3.08;;
16612;SDS011;8419;52.358;9.752;2023-11-21T12:30:04;4.95;;;3.60;;
16612;SDS011;8419;52.358;9.752;2023-11-21T12:32:58;5.07;;;3.37;;
16612;SDS011;8419;52.358;9.752;2023-11-21T12:35:47;5.12;;;3.95;;
16612;SDS011;8419;52.358;9.752;2023-11-21T12:38:34;5.12;;;3.70;;
16612;SDS011;8419;52.358;9.752;2023-11-21T12:41:20;4.03;;;3.53;;
16612;SDS011;8419;52.358;9.752;2023-11-21T12:44:11;4.90;;;3.30;;
16612;SDS011;8419;52.358;9.752;2023-11-21T12:46:59;4.55;;;3.40;;
16612;SDS011;8419;52.358;9.752;2023-11-21T12:49:45;3.97;;;2.87;;
16612;SDS011;8419;52.358;9.752;2023-11-21T12:52:31;3.83;;;3.15;;
16612;SDS011;8419;52.358;9.752;2023-11-21T12:55:19;4.93;;;3.53;;
16612;SDS011;8419;52.358;9.752;2023-11-21T12:58:06;4.10;;;3.22;;
16612;SDS011;8419;52.358;9.752;2023-11-21T13:00:53;3.03;;;2.72;;
16612;SDS011;8419;52.358;9.752;2023-11-21T13:03:41;4.90;;;3.20;;
16612;SDS011;8419;52.358;9.752;2023-11-21T13:06:29;4.32;;;3.25;;
16612;SDS011;8419;52.358;9.752;2023-11-21T13:09:23;3.65;;;3.00;;
16612;SDS011;8419;52.358;9.752;2023-11-21T13:12:09;5.05;;;3.22;;
16612;SDS011;8419;52.358;9.752;2023-11-21T13:14:55;3.47;;;2.55;;
16612;SDS011;8419;52.358;9.752;2023-11-21T13:17:40;4.03;;;3.45;;
16612;SDS011;8419;52.358;9.752;2023-11-21T13:20:26;3.78;;;2.67;;
16612;SDS011;8419;52.358;9.752;2023-11-21T13:23:13;5.07;;;3.60;;
16612;SDS011;8419;52.358;9.752;2023-11-21T13:26:00;4.35;;;3.45;;
16612;SDS011;8419;52.358;9.752;2023-11-21T13:28:48;4.10;;;3.30;;
16612;SDS011;8419;52.358;9.752;2023-11-21T13:31:34;4.07;;;3.22;;
16612;SDS011;8419;52.358;9.752;2023-11-21T13:34:21;6.32;;;3.30;;
16612;SDS011;8419;52.358;9.752;2023-11-21T13:37:09;4.50;;;3.42;;
16612;SDS011;8419;52.358;9.752;2023-11-21T13:39:55;3.92;;;3.30;;
16612;SDS011;8419;52.358;9.752;2023-11-21T13:42:42;7.55;;;3.55;;
16612;SDS011;8419;52.358;9.752;2023-11-21T13:45:27;3.45;;;2.87;;
16612;SDS011;8419;52.358;9.752;2023-11-21T13:48:14;6.15;;;3.30;;
16612;SDS011;8419;52.358;9.752;2023-11-21T13:51:06;4.65;;;3.12;;
16612;SDS011;8419;52.358;9.752;2023-11-21T13:54:01;5.95;;;4.20;;
16612;SDS011;8419;52.358;9.752;2023-11-21T13:56:49;3.78;;;3.03;;
16612;SDS011;8419;52.358;9.752;2023-11-21T13:59:35;3.90;;;3.10;;
16612;SDS011;8419;52.358;9.752;2023-11-21T14:02:21;3.97;;;3.35;;
16612;SDS011;8419;52.358;9.752;2023-11-21T14:05:16;6.45;;;3.30;;
16612;SDS011;8419;52.358;9.752;2023-11-21T14:08:13;3.92;;;3.33;;
16612;SDS011;8419;52.358;9.752;2023-11-21T14:11:04;3.47;;;3.00;;
16612;SDS011;8419;52.358;9.752;2023-11-21T14:13:51;5.12;;;3.12;;
16612;SDS011;8419;52.358;9.752;2023-11-21T14:16:38;5.87;;;3.22;;
16612;SDS011;8419;52.358;9.752;2023-11-21T14:19:26;4.25;;;3.00;;
16612;SDS011;8419;52.358;9.752;2023-11-21T14:22:16;4.10;;;2.70;;
16612;SDS011;8419;52.358;9.752;2023-11-21T14:25:03;4.18;;;2.62;;
16612;SDS011;8419;52.358;9.752;2023-11-21T14:27:52;5.05;;;2.78;;
16612;SDS011;8419;52.358;9.752;2023-11-21T14:30:37;4.45;;;2.42;;
16612;SDS011;8419;52.358;9.752;2023-11-21T14:33:24;3.40;;;2.72;;
16612;SDS011;8419;52.358;9.752;2023-11-21T14:36:10;4.20;;;2.80;;
16612;SDS011;8419;52.358;9.752;2023-11-21T14:38:57;3.37;;;2.90;;
16612;SDS011;8419;52.358;9.752;2023-11-21T14:41:43;5.00;;;3.22;;
16612;SDS011;8419;52.358;9.752;2023-11-21T14:44:29;5.22;;;3.05;;
16612;SDS011;8419;52.358;9.752;2023-11-21T14:47:19;4.00;;;2.87;;
16612;SDS011;8419;52.358;9.752;2023-11-21T14:50:10;4.43;;;2.97;;
16612;SDS011;8419;52.358;9.752;2023-11-21T14:53:24;4.87;;;3.28;;
16612;SDS011;8419;52.358;9.752;2023-11-21T14:56:27;6.30;;;3.30;;
16612;SDS011;8419;52.358;9.752;2023-11-21T14:59:17;5.78;;;3.42;;
16612;SDS011;8419;52.358;9.752;2023-11-21T15:02:03;3.37;;;2.60;;
16612;SDS011;8419;52.358;9.752;2023-11-21T15:05:00;3.55;;;2.47;;
16612;SDS011;8419;52.358;9.752;2023-11-21T15:07:46;4.72;;;3.53;;
16612;SDS011;8419;52.358;9.752;2023-11-21T15:10:34;5.07;;;3.45;;
16612;SDS011;8419;52.358;9.752;2023-11-21T15:13:30;3.50;;;3.20;;
16612;SDS011;8419;52.358;9.752;2023-11-21T15:16:16;5.75;;;4.10;;
16612;SDS011;8419;52.358;9.752;2023-11-21T15:19:02;4.72;;;3.55;;
16612;SDS011;8419;52.358;9.752;2023-11-21T15:21:49;3.97;;;3.37;;
16612;SDS011;8419;52.358;9.752;2023-11-21T15:24:35;4.30;;;3.22;;
16612;SDS011;8419;52.358;9.752;2023-11-21T15:27:20;4.18;;;3.03;;
16612;SDS011;8419;52.358;9.752;2023-11-21T15:30:07;5.45;;;3.35;;
16612;SDS011;8419;52.358;9.752;2023-11-21T15:32:54;3.83;;;2.85;;
16612;SDS011;8419;52.358;9.752;2023-11-21T15:35:39;4.53;;;3.45;;
16612;SDS011;8419;52.358;9.752;2023-11-21T15:38:26;4.43;;;2.97;;
16612;SDS011;8419;52.358;9.752;2023-11-21T15:41:12;5.32;;;3.40;;
16612;SDS011;8419;52.358;9.752;2023-11-21T15:43:58;5.85;;;3.17;;
16612;SDS011;8419;52.358;9.752;2023-11-21T15:46:44;4.82;;;3.15;;
16612;SDS011;8419;52.358;9.752;2023-11-21T15:49:31;4.75;;;3.40;;
16612;SDS011;8419;52.358;9.752;2023-11-21T15:52:20;6.32;;;3.22;;
16612;SDS011;8419;52.358;9.752;2023-11-21T15:55:06;5.55;;;3.28;;
16612;SDS011;8419;52.358;9.752;2023-11-21T15:57:53;4.25;;;3.28;;
16612;SDS011;8419;52.358;9.752;2023-11-21T16:00:38;4.12;;;3.08;;
16612;SDS011;8419;52.358;9.752;2023-11-21T16:03:26;4.47;;;3.53;;
16612;SDS011;8419;52.358;9.752;2023-11-21T16:06:13;3.65;;;3.30;;
16612;SDS011;8419;52.358;9.752;2023-11-21T16:09:00;9.88;;;3.67;;
16612;SDS011;8419;52.358;9.752;2023-11-21T16:11:46;5.70;;;3.28;;
16612;SDS011;8419;52.358;9.752;2023-11-21T16:14:33;8.02;;;4.95;;
16612;SDS011;8419;52.358;9.752;2023-11-21T16:17:20;4.25;;;3.28;;
16612;SDS011;8419;52.358;9.752;2023-11-21T16:20:06;4.28;;;3.75;;
16612;SDS011;8419;52.358;9.752;2023-11-21T16:22:56;4.25;;;3.08;;
16612;SDS011;8419;52.358;9.752;2023-11-21T16:25:42;7.20;;;3.00;;
16612;SDS011;8419;52.358;9.752;2023-11-21T16:28:28;4.82;;;3.30;;
16612;SDS011;8419;52.358;9.752;2023-11-21T16:31:21;6.45;;;3.75;;
16612;SDS011;8419;52.358;9.752;2023-11-21T16:34:11;4.47;;;3.45;;
16612;SDS011;8419;52.358;9.752;2023-11-21T16:36:58;3.53;;;3.00;;
16612;SDS011;8419;52.358;9.752;2023-11-21T16:39:44;6.20;;;3.87;;
16612;SDS011;8419;52.358;9.752;2023-11-21T16:42:31;5.15;;;3.33;;
16612;SDS011;8419;52.358;9.752;2023-11-21T16:45:18;4.57;;;3.60;;
16612;SDS011;8419;52.358;9.752;2023-11-21T16:48:05;7.72;;;3.53;;
16612;SDS011;8419;52.358;9.752;2023-11-21T16:50:52;3.85;;;2.95;;
16612;SDS011;8419;52.358;9.752;2023-11-21T16:53:37;5.12;;;3.25;;
16612;SDS011;8419;52.358;9.752;2023-11-21T16:56:26;4.32;;;3.10;;